sensor_id;sensor_type;location;lat;lon;timestamp;P1;durP1;ratioP1;P2;durP2;ratioP2
4700;SDS011;8724;51.272;6.554;2024-01-25T00:02:22;27.60;;;7.60;;
4700;SDS011;8724;51.272;6.554;2024-01-25T00:04:50;27.03;;;7.50;;
4700;SDS011;8724;51.272;6.554;2024-01-25T00:07:18;21.80;;;7.03;;
4700;SDS011;8724;51.272;6.554;2024-01-25T00:09:47;26.60;;;7.30;;
4700;SDS011;8724;51.272;6.554;2024-01-25T00:12:15;24.13;;;7.07;;
4700;SDS011;8724;51.272;6.554;2024-01-25T00:14:43;32.87;;;9.40;;
4700;SDS011;8724;51.272;6.554;2024-01-25T00:17:11;26.10;;;6.90;;
4700;SDS011;8724;51.272;6.554;2024-01-25T00:19:40;26.97;;;7.57;;
4700;SDS011;8724;51.272;6.554;2024-01-25T00:22:09;25.67;;;7.27;;
4700;SDS011;8724;51.272;6.554;2024-01-25T00:24:37;28.83;;;8.30;;
4700;SDS011;8724;51.272;6.554;2024-01-25T00:27:05;26.63;;;7.30;;
4700;SDS011;8724;51.272;6.554;2024-01-25T00:29:33;26.20;;;8.07;;
4700;SDS011;8724;51.272;6.554;2024-01-25T00:32:02;20.67;;;6.70;;
4700;SDS011;8724;51.272;6.554;2024-01-25T00:34:30;32.60;;;9.40;;
4700;SDS011;8724;51.272;6.554;2024-01-25T00:37:01;22.60;;;6.57;;
4700;SDS011;8724;51.272;6.554;2024-01-25T00:39:29;26.60;;;8.27;;
4700;SDS011;8724;51.272;6.554;2024-01-25T00:42:00;26.97;;;7.03;;
4700;SDS011;8724;51.272;6.554;2024-01-25T00:44:31;21.00;;;6.90;;
4700;SDS011;8724;51.272;6.554;2024-01-25T00:46:59;26.20;;;7.17;;
4700;SDS011;8724;51.272;6.554;2024-01-25T00:49:28;24.93;;;7.10;;
4700;SDS011;8724;51.272;6.554;2024-01-25T00:51:58;26.23;;;7.10;;
4700;SDS011;8724;51.272;6.554;2024-01-25T00:54:29;21.17;;;7.27;;
4700;SDS011;8724;51.272;6.554;2024-01-25T00:56:58;30.93;;;8.67;;
4700;SDS011;8724;51.272;6.554;2024-01-25T00:59:27;27.87;;;7.10;;
4700;SDS011;8724;51.272;6.554;2024-01-25T01:01:55;29.50;;;7.80;;
4700;SDS011;8724;51.272;6.554;2024-01-25T01:04:27;22.40;;;7.53;;
4700;SDS011;8724;51.272;6.554;2024-01-25T01:06:56;27.77;;;6.73;;
4700;SDS011;8724;51.272;6.554;2024-01-25T01:09:26;25.50;;;7.30;;
4700;SDS011;8724;51.272;6.554;2024-01-25T01:11:55;19.20;;;7.20;;
4700;SDS011;8724;51.272;6.554;2024-01-25T01:14:23;27.83;;;7.20;;
4700;SDS011;8724;51.272;6.554;2024-01-25T01:16:52;23.43;;;7.83;;
4700;SDS011;8724;51.272;6.554;2024-01-25T01:19:20;24.60;;;8.40;;
4700;SDS011;8724;51.272;6.554;2024-01-25T01:21:48;23.40;;;6.53;;
4700;SDS011;8724;51.272;6.554;2024-01-25T01:24:17;25.13;;;7.23;;
4700;SDS011;8724;51.272;6.554;2024-01-25T01:26:46;18.53;;;6.80;;
4700;SDS011;8724;51.272;6.554;2024-01-25T01:29:15;23.33;;;6.87;;
4700;SDS011;8724;51.272;6.554;2024-01-25T01:31:44;20.60;;;7.40;;
4700;SDS011;8724;51.272;6.554;2024-01-25T01:34:15;28.53;;;9.03;;
4700;SDS011;8724;51.272;6.554;2024-01-25T01:36:44;21.90;;;6.87;;
4700;SDS011;8724;51.272;6.554;2024-01-25T01:39:12;26.93;;;7.77;;
4700;SDS011;8724;51.272;6.554;2024-01-25T01:41:40;24.67;;;7.20;;
4700;SDS011;8724;51.272;6.554;2024-01-25T01:44:11;23.60;;;6.53;;
4700;SDS011;8724;51.272;6.554;2024-01-25T01:46:39;21.67;;;7.90;;
4700;SDS011;8724;51.272;6.554;2024-01-25T01:49:10;31.80;;;8.60;;
4700;SDS011;8724;51.272;6.554;2024-01-25T01:51:40;36.20;;;8.60;;
4700;SDS011;8724;51.272;6.554;2024-01-25T01:54:10;29.43;;;8.07;;
4700;SDS011;8724;51.272;6.554;2024-01-25T01:56:38;24.50;;;6.93;;
4700;SDS011;8724;51.272;6.554;2024-01-25T01:59:08;28.10;;;8.50;;
4700;SDS011;8724;51.272;6.554;2024-01-25T02:01:39;33.73;;;8.13;;
4700;SDS011;8724;51.272;6.554;2024-01-25T02:04:07;28.70;;;7.90;;
4700;SDS011;8724;51.272;6.554;2024-01-25T02:06:35;28.70;;;7.83;;
4700;SDS011;8724;51.272;6.554;2024-01-25T02:09:04;31.07;;;8.70;;
4700;SDS011;8724;51.272;6.554;2024-01-25T02:11:32;22.13;;;7.20;;
4700;SDS011;8724;51.272;6.554;2024-01-25T02:14:00;28.17;;;8.30;;
4700;SDS011;8724;51.272;6.554;2024-01-25T02:16:28;21.40;;;7.73;;
4700;SDS011;8724;51.272;6.554;2024-01-25T02:18:58;30.47;;;7.60;;
4700;SDS011;8724;51.272;6.554;2024-01-25T02:21:27;26.83;;;7.83;;
4700;SDS011;8724;51.272;6.554;2024-01-25T02:23:56;28.27;;;7.87;;
4700;SDS011;8724;51.272;6.554;2024-01-25T02:26:24;29.70;;;7.53;;
4700;SDS011;8724;51.272;6.554;2024-01-25T02:28:53;26.43;;;8.40;;
4700;SDS011;8724;51.272;6.554;2024-01-25T02:31:21;27.83;;;7.87;;
4700;SDS011;8724;51.272;6.554;2024-01-25T02:33:49;32.90;;;7.63;;
4700;SDS011;8724;51.272;6.554;2024-01-25T02:49:13;24.57;;;7.63;;
4700;SDS011;8724;51.272;6.554;2024-01-25T02:51:42;27.53;;;6.53;;
4700;SDS011;8724;51.272;6.554;2024-01-25T02:54:10;24.83;;;7.80;;
4700;SDS011;8724;51.272;6.554;2024-01-25T02:56:39;26.40;;;8.27;;
4700;SDS011;8724;51.272;6.554;2024-01-25T02:59:07;20.03;;;6.43;;
4700;SDS011;8724;51.272;6.554;2024-01-25T03:01:39;29.50;;;6.73;;
4700;SDS011;8724;51.272;6.554;2024-01-25T03:04:08;30.77;;;7.83;;
4700;SDS011;8724;51.272;6.554;2024-01-25T03:06:38;23.40;;;6.97;;
4700;SDS011;8724;51.272;6.554;2024-01-25T03:09:06;24.60;;;6.47;;
4700;SDS011;8724;51.272;6.554;2024-01-25T03:11:35;19.53;;;6.57;;
4700;SDS011;8724;51.272;6.554;2024-01-25T03:14:02;28.03;;;7.20;;
4700;SDS011;8724;51.272;6.554;2024-01-25T03:16:30;20.33;;;6.00;;
4700;SDS011;8724;51.272;6.554;2024-01-25T03:18:58;23.20;;;7.17;;
4700;SDS011;8724;51.272;6.554;2024-01-25T03:21:27;24.17;;;8.43;;
4700;SDS011;8724;51.272;6.554;2024-01-25T03:23:57;22.70;;;6.90;;
4700;SDS011;8724;51.272;6.554;2024-01-25T03:26:26;23.97;;;7.47;;
4700;SDS011;8724;51.272;6.554;2024-01-25T03:28:54;21.10;;;7.10;;
4700;SDS011;8724;51.272;6.554;2024-01-25T03:31:22;19.80;;;7.00;;
4700;SDS011;8724;51.272;6.554;2024-01-25T03:33:51;21.73;;;7.20;;
4700;SDS011;8724;51.272;6.554;2024-01-25T03:36:19;30.50;;;6.63;;
4700;SDS011;8724;51.272;6.554;2024-01-25T03:38:47;30.63;;;7.90;;
4700;SDS011;8724;51.272;6.554;2024-01-25T03:41:17;28.83;;;7.03;;
4700;SDS011;8724;51.272;6.554;2024-01-25T03:43:46;25.83;;;7.90;;
4700;SDS011;8724;51.272;6.554;2024-01-25T03:46:14;29.47;;;8.40;;
4700;SDS011;8724;51.272;6.554;2024-01-25T03:48:42;26.60;;;7.50;;
4700;SDS011;8724;51.272;6.554;2024-01-25T03:51:10;23.33;;;8.27;;
4700;SDS011;8724;51.272;6.554;2024-01-25T03:53:38;23.17;;;6.93;;
4700;SDS011;8724;51.272;6.554;2024-01-25T03:56:10;27.40;;;8.27;;
4700;SDS011;8724;51.272;6.554;2024-01-25T03:58:40;32.17;;;8.30;;
4700;SDS011;8724;51.272;6.554;2024-01-25T04:01:08;39.50;;;9.67;;
4700;SDS011;8724;51.272;6.554;2024-01-25T04:03:37;26.13;;;9.20;;
4700;SDS011;8724;51.272;6.554;2024-01-25T04:06:05;33.40;;;8.10;;
4700;SDS011;8724;51.272;6.554;2024-01-25T04:08:34;44.17;;;9.50;;
4700;SDS011;8724;51.272;6.554;2024-01-25T04:11:02;21.50;;;6.40;;
4700;SDS011;8724;51.272;6.554;2024-01-25T04:13:30;33.57;;;9.17;;
4700;SDS011;8724;51.272;6.554;2024-01-25T04:16:00;31.60;;;9.03;;
4700;SDS011;8724;51.272;6.554;2024-01-25T04:18:28;24.33;;;6.70;;
4700;SDS011;8724;51.272;6.554;2024-01-25T04:20:57;23.30;;;7.67;;
4700;SDS011;8724;51.272;6.554;2024-01-25T04:23:25;21.20;;;7.97;;
4700;SDS011;8724;51.272;6.554;2024-01-25T04:25:53;30.37;;;9.07;;
4700;SDS011;8724;51.272;6.554;2024-01-25T04:28:21;25.43;;;7.30;;
4700;SDS011;8724;51.272;6.554;2024-01-25T04:30:50;43.40;;;8.87;;
4700;SDS011;8724;51.272;6.554;2024-01-25T04:33:20;25.40;;;6.47;;
4700;SDS011;8724;51.272;6.554;2024-01-25T04:35:48;23.23;;;7.23;;
4700;SDS011;8724;51.272;6.554;2024-01-25T04:38:17;20.07;;;6.90;;
4700;SDS011;8724;51.272;6.554;2024-01-25T04:40:45;42.83;;;9.50;;
4700;SDS011;8724;51.272;6.554;2024-01-25T04:43:13;24.33;;;7.53;;
4700;SDS011;8724;51.272;6.554;2024-01-25T04:45:42;35.13;;;8.63;;
4700;SDS011;8724;51.272;6.554;2024-01-25T04:48:10;29.80;;;9.77;;
4700;SDS011;8724;51.272;6.554;2024-01-25T04:50:40;26.73;;;7.00;;
4700;SDS011;8724;51.272;6.554;2024-01-25T04:53:08;30.70;;;8.60;;
4700;SDS011;8724;51.272;6.554;2024-01-25T04:55:36;33.20;;;7.97;;
4700;SDS011;8724;51.272;6.554;2024-01-25T04:58:04;24.63;;;6.73;;
4700;SDS011;8724;51.272;6.554;2024-01-25T05:00:32;28.83;;;9.03;;
4700;SDS011;8724;51.272;6.554;2024-01-25T05:03:02;30.40;;;6.90;;
4700;SDS011;8724;51.272;6.554;2024-01-25T05:05:30;30.77;;;8.20;;
4700;SDS011;8724;51.272;6.554;2024-01-25T05:08:00;24.80;;;7.30;;
4700;SDS011;8724;51.272;6.554;2024-01-25T05:10:28;32.97;;;8.00;;
4700;SDS011;8724;51.272;6.554;2024-01-25T05:12:56;27.10;;;8.37;;
4700;SDS011;8724;51.272;6.554;2024-01-25T05:15:24;25.50;;;7.70;;
4700;SDS011;8724;51.272;6.554;2024-01-25T05:17:52;26.73;;;8.00;;
4700;SDS011;8724;51.272;6.554;2024-01-25T05:20:20;25.60;;;6.27;;
4700;SDS011;8724;51.272;6.554;2024-01-25T05:22:49;24.80;;;7.00;;
4700;SDS011;8724;51.272;6.554;2024-01-25T05:25:19;27.87;;;6.70;;
4700;SDS011;8724;51.272;6.554;2024-01-25T05:27:47;23.80;;;7.13;;
4700;SDS011;8724;51.272;6.554;2024-01-25T05:30:15;26.90;;;7.57;;
4700;SDS011;8724;51.272;6.554;2024-01-25T05:32:44;21.30;;;7.00;;
4700;SDS011;8724;51.272;6.554;2024-01-25T05:35:12;26.40;;;6.73;;
4700;SDS011;8724;51.272;6.554;2024-01-25T05:37:40;18.00;;;7.33;;
4700;SDS011;8724;51.272;6.554;2024-01-25T05:40:09;20.80;;;7.37;;
4700;SDS011;8724;51.272;6.554;2024-01-25T05:42:39;22.83;;;7.50;;
4700;SDS011;8724;51.272;6.554;2024-01-25T05:45:08;26.50;;;8.30;;
4700;SDS011;8724;51.272;6.554;2024-01-25T05:47:36;21.47;;;6.87;;
4700;SDS011;8724;51.272;6.554;2024-01-25T05:50:05;23.30;;;7.33;;
4700;SDS011;8724;51.272;6.554;2024-01-25T05:52:34;24.93;;;7.27;;
4700;SDS011;8724;51.272;6.554;2024-01-25T05:55:04;24.97;;;7.87;;
4700;SDS011;8724;51.272;6.554;2024-01-25T05:57:34;23.50;;;7.60;;
4700;SDS011;8724;51.272;6.554;2024-01-25T06:00:05;23.23;;;7.03;;
4700;SDS011;8724;51.272;6.554;2024-01-25T06:02:34;27.00;;;7.17;;
4700;SDS011;8724;51.272;6.554;2024-01-25T06:05:03;17.77;;;5.90;;
4700;SDS011;8724;51.272;6.554;2024-01-25T06:07:31;19.17;;;7.00;;
4700;SDS011;8724;51.272;6.554;2024-01-25T06:10:00;21.73;;;7.17;;
4700;SDS011;8724;51.272;6.554;2024-01-25T06:12:31;20.70;;;6.47;;
4700;SDS011;8724;51.272;6.554;2024-01-25T06:14:59;14.80;;;6.43;;
4700;SDS011;8724;51.272;6.554;2024-01-25T06:17:30;23.13;;;7.27;;
4700;SDS011;8724;51.272;6.554;2024-01-25T06:19:58;25.07;;;7.00;;
4700;SDS011;8724;51.272;6.554;2024-01-25T06:22:26;28.27;;;7.70;;
4700;SDS011;8724;51.272;6.554;2024-01-25T06:24:55;24.23;;;6.87;;
4700;SDS011;8724;51.272;6.554;2024-01-25T06:27:23;19.87;;;7.10;;
4700;SDS011;8724;51.272;6.554;2024-01-25T06:29:51;21.60;;;7.00;;
4700;SDS011;8724;51.272;6.554;2024-01-25T06:32:19;25.20;;;7.87;;
4700;SDS011;8724;51.272;6.554;2024-01-25T06:34:53;21.67;;;7.70;;
4700;SDS011;8724;51.272;6.554;2024-01-25T06:37:22;19.47;;;6.23;;
4700;SDS011;8724;51.272;6.554;2024-01-25T06:39:50;34.07;;;6.73;;
4700;SDS011;8724;51.272;6.554;2024-01-25T06:42:18;23.93;;;7.00;;
4700;SDS011;8724;51.272;6.554;2024-01-25T06:44:46;24.37;;;7.43;;
4700;SDS011;8724;51.272;6.554;2024-01-25T06:47:15;20.30;;;6.70;;
4700;SDS011;8724;51.272;6.554;2024-01-25T06:49:44;24.40;;;7.07;;
4700;SDS011;8724;51.272;6.554;2024-01-25T06:52:17;23.20;;;6.83;;
4700;SDS011;8724;51.272;6.554;2024-01-25T06:54:45;29.97;;;7.90;;
4700;SDS011;8724;51.272;6.554;2024-01-25T06:57:14;23.37;;;6.47;;
4700;SDS011;8724;51.272;6.554;2024-01-25T06:59:42;17.40;;;6.20;;
4700;SDS011;8724;51.272;6.554;2024-01-25T07:02:11;17.60;;;6.00;;
4700;SDS011;8724;51.272;6.554;2024-01-25T07:04:40;33.43;;;7.93;;
4700;SDS011;8724;51.272;6.554;2024-01-25T07:07:08;29.80;;;7.87;;
4700;SDS011;8724;51.272;6.554;2024-01-25T07:09:38;27.63;;;8.47;;
4700;SDS011;8724;51.272;6.554;2024-01-25T07:12:06;22.73;;;6.70;;
4700;SDS011;8724;51.272;6.554;2024-01-25T07:14:34;21.40;;;7.40;;
4700;SDS011;8724;51.272;6.554;2024-01-25T07:17:03;21.17;;;7.83;;
4700;SDS011;8724;51.272;6.554;2024-01-25T07:19:31;21.80;;;7.27;;
4700;SDS011;8724;51.272;6.554;2024-01-25T07:21:59;31.77;;;8.50;;
4700;SDS011;8724;51.272;6.554;2024-01-25T07:24:28;29.40;;;8.40;;
4700;SDS011;8724;51.272;6.554;2024-01-25T07:26:57;22.30;;;7.27;;
4700;SDS011;8724;51.272;6.554;2024-01-25T07:29:27;23.43;;;7.80;;
4700;SDS011;8724;51.272;6.554;2024-01-25T07:31:55;21.87;;;7.33;;
4700;SDS011;8724;51.272;6.554;2024-01-25T07:34:24;27.23;;;8.07;;
4700;SDS011;8724;51.272;6.554;2024-01-25T07:36:52;26.60;;;8.13;;
4700;SDS011;8724;51.272;6.554;2024-01-25T07:39:20;26.20;;;7.37;;
4700;SDS011;8724;51.272;6.554;2024-01-25T07:41:49;21.73;;;7.03;;
4700;SDS011;8724;51.272;6.554;2024-01-25T07:44:19;23.63;;;7.60;;
4700;SDS011;8724;51.272;6.554;2024-01-25T07:46:47;21.00;;;6.97;;
4700;SDS011;8724;51.272;6.554;2024-01-25T07:49:15;24.33;;;8.60;;
4700;SDS011;8724;51.272;6.554;2024-01-25T07:51:43;18.60;;;6.80;;
4700;SDS011;8724;51.272;6.554;2024-01-25T07:54:11;26.97;;;8.10;;
4700;SDS011;8724;51.272;6.554;2024-01-25T07:56:40;28.37;;;7.07;;
4700;SDS011;8724;51.272;6.554;2024-01-25T07:59:08;30.30;;;6.67;;
4700;SDS011;8724;51.272;6.554;2024-01-25T08:01:37;25.80;;;6.80;;
4700;SDS011;8724;51.272;6.554;2024-01-25T08:04:06;24.67;;;7.33;;
4700;SDS011;8724;51.272;6.554;2024-01-25T08:06:34;23.67;;;7.33;;
4700;SDS011;8724;51.272;6.554;2024-01-25T08:09:02;30.73;;;8.97;;
4700;SDS011;8724;51.272;6.554;2024-01-25T08:11:31;21.97;;;6.20;;
4700;SDS011;8724;51.272;6.554;2024-01-25T08:13:59;26.50;;;6.70;;
4700;SDS011;8724;51.272;6.554;2024-01-25T08:16:30;21.60;;;7.10;;
4700;SDS011;8724;51.272;6.554;2024-01-25T08:18:59;19.83;;;7.00;;
4700;SDS011;8724;51.272;6.554;2024-01-25T08:21:28;24.73;;;7.63;;
4700;SDS011;8724;51.272;6.554;2024-01-25T08:23:56;17.73;;;7.27;;
4700;SDS011;8724;51.272;6.554;2024-01-25T08:26:24;28.37;;;8.60;;
4700;SDS011;8724;51.272;6.554;2024-01-25T08:28:52;19.60;;;7.10;;
4700;SDS011;8724;51.272;6.554;2024-01-25T08:31:20;26.67;;;7.70;;
4700;SDS011;8724;51.272;6.554;2024-01-25T08:33:49;23.87;;;8.47;;
4700;SDS011;8724;51.272;6.554;2024-01-25T08:36:19;24.47;;;7.77;;
4700;SDS011;8724;51.272;6.554;2024-01-25T08:38:49;23.77;;;8.30;;
4700;SDS011;8724;51.272;6.554;2024-01-25T08:41:17;20.93;;;8.63;;
4700;SDS011;8724;51.272;6.554;2024-01-25T08:43:45;30.40;;;9.20;;
4700;SDS011;8724;51.272;6.554;2024-01-25T08:46:14;29.80;;;8.77;;
4700;SDS011;8724;51.272;6.554;2024-01-25T08:48:43;29.40;;;9.20;;
4700;SDS011;8724;51.272;6.554;2024-01-25T08:51:11;21.30;;;9.83;;
4700;SDS011;8724;51.272;6.554;2024-01-25T08:53:41;28.50;;;10.10;;
4700;SDS011;8724;51.272;6.554;2024-01-25T08:56:10;26.27;;;10.43;;
4700;SDS011;8724;51.272;6.554;2024-01-25T08:58:38;28.40;;;9.00;;
4700;SDS011;8724;51.272;6.554;2024-01-25T09:01:06;27.23;;;10.40;;
4700;SDS011;8724;51.272;6.554;2024-01-25T09:03:34;20.83;;;8.40;;
4700;SDS011;8724;51.272;6.554;2024-01-25T09:06:02;23.13;;;8.53;;
4700;SDS011;8724;51.272;6.554;2024-01-25T09:08:33;31.17;;;10.80;;
4700;SDS011;8724;51.272;6.554;2024-01-25T09:11:02;26.50;;;11.10;;
4700;SDS011;8724;51.272;6.554;2024-01-25T09:13:31;23.83;;;9.23;;
4700;SDS011;8724;51.272;6.554;2024-01-25T09:16:11;32.77;;;10.87;;
4700;SDS011;8724;51.272;6.554;2024-01-25T09:18:40;30.63;;;9.67;;
4700;SDS011;8724;51.272;6.554;2024-01-25T09:21:08;31.67;;;10.27;;
4700;SDS011;8724;51.272;6.554;2024-01-25T09:23:36;27.07;;;9.60;;
4700;SDS011;8724;51.272;6.554;2024-01-25T09:26:06;32.07;;;10.20;;
4700;SDS011;8724;51.272;6.554;2024-01-25T09:28:35;25.13;;;10.37;;
4700;SDS011;8724;51.272;6.554;2024-01-25T09:31:03;30.60;;;10.03;;
4700;SDS011;8724;51.272;6.554;2024-01-25T09:33:33;22.17;;;8.60;;
4700;SDS011;8724;51.272;6.554;2024-01-25T09:36:02;28.77;;;11.13;;
4700;SDS011;8724;51.272;6.554;2024-01-25T09:38:30;30.70;;;10.33;;
4700;SDS011;8724;51.272;6.554;2024-01-25T09:40:59;32.63;;;10.10;;
4700;SDS011;8724;51.272;6.554;2024-01-25T09:43:29;27.37;;;9.93;;
4700;SDS011;8724;51.272;6.554;2024-01-25T09:45:58;25.60;;;9.63;;
4700;SDS011;8724;51.272;6.554;2024-01-25T09:48:28;31.83;;;11.23;;
4700;SDS011;8724;51.272;6.554;2024-01-25T09:50:56;25.03;;;8.57;;
4700;SDS011;8724;51.272;6.554;2024-01-25T09:53:27;26.97;;;10.27;;
4700;SDS011;8724;51.272;6.554;2024-01-25T09:56:03;29.07;;;9.57;;
4700;SDS011;8724;51.272;6.554;2024-01-25T09:58:38;25.57;;;8.43;;
4700;SDS011;8724;51.272;6.554;2024-01-25T10:01:08;29.07;;;9.57;;
4700;SDS011;8724;51.272;6.554;2024-01-25T10:03:38;24.87;;;8.90;;
4700;SDS011;8724;51.272;6.554;2024-01-25T10:06:07;30.97;;;9.23;;
4700;SDS011;8724;51.272;6.554;2024-01-25T10:08:36;31.77;;;10.00;;
4700;SDS011;8724;51.272;6.554;2024-01-25T10:11:04;20.77;;;8.60;;
4700;SDS011;8724;51.272;6.554;2024-01-25T10:13:41;22.60;;;8.73;;
4700;SDS011;8724;51.272;6.554;2024-01-25T10:16:10;27.70;;;9.03;;
4700;SDS011;8724;51.272;6.554;2024-01-25T10:18:40;26.93;;;7.93;;
4700;SDS011;8724;51.272;6.554;2024-01-25T10:21:10;21.47;;;9.20;;
4700;SDS011;8724;51.272;6.554;2024-01-25T10:23:39;21.23;;;9.33;;
4700;SDS011;8724;51.272;6.554;2024-01-25T10:26:09;32.43;;;10.30;;
4700;SDS011;8724;51.272;6.554;2024-01-25T10:28:37;27.73;;;9.70;;
4700;SDS011;8724;51.272;6.554;2024-01-25T10:31:07;18.13;;;7.67;;
4700;SDS011;8724;51.272;6.554;2024-01-25T10:33:36;26.70;;;9.67;;
4700;SDS011;8724;51.272;6.554;2024-01-25T10:36:08;27.07;;;9.77;;
4700;SDS011;8724;51.272;6.554;2024-01-25T10:38:38;22.33;;;8.43;;
4700;SDS011;8724;51.272;6.554;2024-01-25T10:41:09;26.80;;;9.90;;
4700;SDS011;8724;51.272;6.554;2024-01-25T10:43:37;23.70;;;9.00;;
4700;SDS011;8724;51.272;6.554;2024-01-25T10:46:07;27.63;;;9.50;;
4700;SDS011;8724;51.272;6.554;2024-01-25T10:48:36;22.70;;;9.23;;
4700;SDS011;8724;51.272;6.554;2024-01-25T10:51:05;27.00;;;9.53;;
4700;SDS011;8724;51.272;6.554;2024-01-25T10:53:34;24.93;;;8.40;;
4700;SDS011;8724;51.272;6.554;2024-01-25T10:56:02;25.30;;;9.23;;
4700;SDS011;8724;51.272;6.554;2024-01-25T10:58:31;26.70;;;8.90;;
4700;SDS011;8724;51.272;6.554;2024-01-25T11:01:09;23.43;;;9.20;;
4700;SDS011;8724;51.272;6.554;2024-01-25T11:03:42;30.00;;;10.20;;
4700;SDS011;8724;51.272;6.554;2024-01-25T11:06:13;28.60;;;11.17;;
4700;SDS011;8724;51.272;6.554;2024-01-25T11:08:42;26.47;;;11.10;;
4700;SDS011;8724;51.272;6.554;2024-01-25T11:11:10;26.37;;;10.43;;
4700;SDS011;8724;51.272;6.554;2024-01-25T11:13:41;29.60;;;10.03;;
4700;SDS011;8724;51.272;6.554;2024-01-25T11:16:16;21.90;;;9.77;;
4700;SDS011;8724;51.272;6.554;2024-01-25T11:18:48;23.37;;;9.47;;
4700;SDS011;8724;51.272;6.554;2024-01-25T11:21:27;31.83;;;12.53;;
4700;SDS011;8724;51.272;6.554;2024-01-25T11:24:00;27.90;;;9.90;;
4700;SDS011;8724;51.272;6.554;2024-01-25T11:26:29;27.70;;;10.60;;
4700;SDS011;8724;51.272;6.554;2024-01-25T11:29:00;31.17;;;11.07;;
4700;SDS011;8724;51.272;6.554;2024-01-25T11:31:29;25.20;;;10.40;;
4700;SDS011;8724;51.272;6.554;2024-01-25T11:33:58;20.80;;;9.57;;
4700;SDS011;8724;51.272;6.554;2024-01-25T11:36:27;19.70;;;9.17;;
4700;SDS011;8724;51.272;6.554;2024-01-25T11:38:56;18.70;;;9.00;;
4700;SDS011;8724;51.272;6.554;2024-01-25T11:41:24;27.73;;;10.00;;
4700;SDS011;8724;51.272;6.554;2024-01-25T11:43:53;25.33;;;8.97;;
4700;SDS011;8724;51.272;6.554;2024-01-25T11:46:21;23.87;;;9.60;;
4700;SDS011;8724;51.272;6.554;2024-01-25T11:48:51;24.13;;;10.17;;
4700;SDS011;8724;51.272;6.554;2024-01-25T11:51:19;26.50;;;10.40;;
4700;SDS011;8724;51.272;6.554;2024-01-25T11:53:47;25.40;;;11.77;;
4700;SDS011;8724;51.272;6.554;2024-01-25T11:56:17;30.07;;;12.60;;
4700;SDS011;8724;51.272;6.554;2024-01-25T11:58:48;27.47;;;11.60;;
4700;SDS011;8724;51.272;6.554;2024-01-25T12:01:17;26.33;;;11.47;;
4700;SDS011;8724;51.272;6.554;2024-01-25T12:03:47;20.77;;;10.53;;
4700;SDS011;8724;51.272;6.554;2024-01-25T12:06:17;21.73;;;12.13;;
4700;SDS011;8724;51.272;6.554;2024-01-25T12:08:46;22.83;;;10.47;;
4700;SDS011;8724;51.272;6.554;2024-01-25T12:11:14;22.80;;;11.40;;
4700;SDS011;8724;51.272;6.554;2024-01-25T12:13:45;25.93;;;12.83;;
4700;SDS011;8724;51.272;6.554;2024-01-25T12:16:13;30.03;;;13.83;;
4700;SDS011;8724;51.272;6.554;2024-01-25T12:18:43;26.03;;;12.63;;
4700;SDS011;8724;51.272;6.554;2024-01-25T12:21:12;28.40;;;13.87;;
4700;SDS011;8724;51.272;6.554;2024-01-25T12:23:43;28.00;;;13.07;;
4700;SDS011;8724;51.272;6.554;2024-01-25T12:26:11;22.80;;;12.07;;
4700;SDS011;8724;51.272;6.554;2024-01-25T12:28:39;30.17;;;11.83;;
4700;SDS011;8724;51.272;6.554;2024-01-25T12:31:08;22.30;;;11.47;;
4700;SDS011;8724;51.272;6.554;2024-01-25T12:33:37;23.10;;;11.80;;
4700;SDS011;8724;51.272;6.554;2024-01-25T12:36:05;29.83;;;12.37;;
4700;SDS011;8724;51.272;6.554;2024-01-25T12:38:34;29.63;;;12.93;;
4700;SDS011;8724;51.272;6.554;2024-01-25T12:41:04;23.57;;;12.13;;
4700;SDS011;8724;51.272;6.554;2024-01-25T12:43:33;21.70;;;10.60;;
4700;SDS011;8724;51.272;6.554;2024-01-25T12:46:02;23.37;;;12.07;;
4700;SDS011;8724;51.272;6.554;2024-01-25T12:48:47;21.87;;;11.63;;
4700;SDS011;8724;51.272;6.554;2024-01-25T12:51:16;24.40;;;11.17;;
4700;SDS011;8724;51.272;6.554;2024-01-25T12:53:44;32.73;;;12.40;;
4700;SDS011;8724;51.272;6.554;2024-01-25T12:56:14;22.10;;;10.30;;
4700;SDS011;8724;51.272;6.554;2024-01-25T12:58:42;23.70;;;11.63;;
4700;SDS011;8724;51.272;6.554;2024-01-25T13:01:10;22.23;;;12.07;;
4700;SDS011;8724;51.272;6.554;2024-01-25T13:03:42;24.50;;;11.37;;
4700;SDS011;8724;51.272;6.554;2024-01-25T13:06:12;20.97;;;11.70;;
4700;SDS011;8724;51.272;6.554;2024-01-25T13:08:42;22.67;;;10.63;;
4700;SDS011;8724;51.272;6.554;2024-01-25T13:11:11;26.13;;;10.60;;
4700;SDS011;8724;51.272;6.554;2024-01-25T13:13:40;25.33;;;10.23;;
4700;SDS011;8724;51.272;6.554;2024-01-25T13:16:10;20.93;;;10.47;;
4700;SDS011;8724;51.272;6.554;2024-01-25T13:18:44;22.60;;;10.07;;
4700;SDS011;8724;51.272;6.554;2024-01-25T13:21:12;22.23;;;11.30;;
4700;SDS011;8724;51.272;6.554;2024-01-25T13:23:43;21.40;;;10.07;;
4700;SDS011;8724;51.272;6.554;2024-01-25T13:26:11;22.53;;;9.43;;
4700;SDS011;8724;51.272;6.554;2024-01-25T13:28:41;25.20;;;10.50;;
4700;SDS011;8724;51.272;6.554;2024-01-25T13:31:09;20.87;;;10.70;;
4700;SDS011;8724;51.272;6.554;2024-01-25T13:33:37;16.77;;;8.00;;
4700;SDS011;8724;51.272;6.554;2024-01-25T13:36:06;18.40;;;9.70;;
4700;SDS011;8724;51.272;6.554;2024-01-25T13:38:37;21.77;;;9.03;;
4700;SDS011;8724;51.272;6.554;2024-01-25T13:41:05;26.30;;;9.70;;
4700;SDS011;8724;51.272;6.554;2024-01-25T13:43:33;20.77;;;10.30;;
4700;SDS011;8724;51.272;6.554;2024-01-25T13:46:02;22.47;;;10.13;;
4700;SDS011;8724;51.272;6.554;2024-01-25T13:48:31;15.10;;;8.27;;
4700;SDS011;8724;51.272;6.554;2024-01-25T13:50:59;18.37;;;8.83;;
4700;SDS011;8724;51.272;6.554;2024-01-25T13:53:27;21.60;;;9.30;;
4700;SDS011;8724;51.272;6.554;2024-01-25T13:55:55;21.23;;;9.40;;
4700;SDS011;8724;51.272;6.554;2024-01-25T13:58:23;26.20;;;10.43;;
4700;SDS011;8724;51.272;6.554;2024-01-25T14:00:51;20.27;;;8.77;;
4700;SDS011;8724;51.272;6.554;2024-01-25T14:03:24;18.10;;;7.97;;
4700;SDS011;8724;51.272;6.554;2024-01-25T14:05:53;27.20;;;9.87;;
4700;SDS011;8724;51.272;6.554;2024-01-25T14:08:23;20.70;;;8.40;;
4700;SDS011;8724;51.272;6.554;2024-01-25T14:10:51;27.47;;;8.97;;
4700;SDS011;8724;51.272;6.554;2024-01-25T14:13:19;22.33;;;7.67;;
4700;SDS011;8724;51.272;6.554;2024-01-25T14:15:48;17.83;;;8.10;;
4700;SDS011;8724;51.272;6.554;2024-01-25T14:18:16;19.87;;;7.93;;
4700;SDS011;8724;51.272;6.554;2024-01-25T14:20:46;21.60;;;8.20;;
4700;SDS011;8724;51.272;6.554;2024-01-25T14:23:16;20.83;;;7.70;;
4700;SDS011;8724;51.272;6.554;2024-01-25T14:25:45;19.60;;;7.40;;
4700;SDS011;8724;51.272;6.554;2024-01-25T14:28:13;18.93;;;7.00;;
4700;SDS011;8724;51.272;6.554;2024-01-25T14:30:42;16.40;;;7.70;;
4700;SDS011;8724;51.272;6.554;2024-01-25T14:33:12;17.53;;;7.13;;
4700;SDS011;8724;51.272;6.554;2024-01-25T14:35:41;19.30;;;8.17;;
4700;SDS011;8724;51.272;6.554;2024-01-25T14:38:11;19.10;;;6.87;;
4700;SDS011;8724;51.272;6.554;2024-01-25T14:40:39;17.20;;;6.90;;
4700;SDS011;8724;51.272;6.554;2024-01-25T14:43:23;19.73;;;8.10;;
4700;SDS011;8724;51.272;6.554;2024-01-25T14:45:51;19.47;;;7.93;;
4700;SDS011;8724;51.272;6.554;2024-01-25T14:48:20;19.03;;;7.63;;
4700;SDS011;8724;51.272;6.554;2024-01-25T14:50:48;21.93;;;7.30;;
4700;SDS011;8724;51.272;6.554;2024-01-25T14:53:18;18.43;;;7.23;;
4700;SDS011;8724;51.272;6.554;2024-01-25T14:55:46;17.73;;;7.30;;
4700;SDS011;8724;51.272;6.554;2024-01-25T14:58:14;19.53;;;7.77;;
4700;SDS011;8724;51.272;6.554;2024-01-25T15:00:49;22.10;;;10.77;;
4700;SDS011;8724;51.272;6.554;2024-01-25T15:03:18;28.13;;;10.60;;
4700;SDS011;8724;51.272;6.554;2024-01-25T15:05:46;22.77;;;11.00;;
4700;SDS011;8724;51.272;6.554;2024-01-25T15:08:15;22.03;;;8.73;;
4700;SDS011;8724;51.272;6.554;2024-01-25T15:10:45;17.03;;;7.47;;
4700;SDS011;8724;51.272;6.554;2024-01-25T15:13:14;17.10;;;7.87;;
4700;SDS011;8724;51.272;6.554;2024-01-25T15:15:42;20.27;;;7.10;;
4700;SDS011;8724;51.272;6.554;2024-01-25T15:18:10;20.97;;;8.33;;
4700;SDS011;8724;51.272;6.554;2024-01-25T15:20:39;19.53;;;7.67;;
4700;SDS011;8724;51.272;6.554;2024-01-25T15:23:07;24.50;;;8.17;;